createdAt,value
2023-04-12T00:00:10.379Z,3.13
2023-04-12T00:02:37.510Z,3.08
2023-04-12T00:05:04.501Z,3.05
2023-04-12T00:07:30.921Z,3.03
2023-04-12T00:09:57.273Z,3.03
2023-04-12T00:12:24.074Z,3.04
2023-04-12T00:14:50.423Z,3.05
2023-04-12T00:17:16.830Z,3.03
2023-04-12T00:19:44.759Z,3.05
2023-04-12T00:22:11.489Z,3.06
2023-04-12T00:24:38.735Z,3.03
2023-04-12T00:27:06.047Z,3.07
2023-04-12T00:29:33.140Z,3.05
2023-04-12T00:32:03.798Z,3.05
2023-04-12T00:34:30.877Z,3.04
2023-04-12T00:36:57.240Z,3.04
2023-04-12T00:39:23.752Z,3.01
2023-04-12T00:41:50.834Z,3.03
2023-04-12T00:44:18.170Z,3.05
2023-04-12T00:46:47.492Z,3.06
2023-04-12T00:49:14.357Z,3.09
2023-04-12T00:51:40.927Z,3.10
2023-04-12T00:54:07.427Z,3.12
2023-04-12T00:56:34.250Z,3.12
2023-04-12T00:59:01.897Z,3.13
2023-04-12T01:01:28.430Z,3.11
2023-04-12T01:03:55.069Z,3.09
2023-04-12T01:06:29.751Z,3.13
2023-04-12T01:09:11.245Z,3.14
2023-04-12T01:12:09.659Z,3.18
2023-04-12T01:14:41.185Z,3.18
2023-04-12T01:17:08.010Z,3.18
2023-04-12T01:19:57.793Z,3.17
2023-04-12T01:22:56.960Z,3.18
2023-04-12T01:25:47.965Z,3.18
2023-04-12T01:28:22.628Z,3.16
2023-04-12T01:30:50.578Z,3.15
2023-04-12T01:33:17.016Z,3.15
2023-04-12T01:35:43.495Z,3.18
2023-04-12T01:38:10.099Z,3.20
2023-04-12T01:40:36.492Z,3.15
2023-04-12T01:43:07.154Z,3.20
2023-04-12T01:45:33.980Z,3.18
2023-04-12T01:48:01.256Z,3.20
2023-04-12T01:50:41.629Z,3.21
2023-04-12T01:53:18.485Z,3.23
2023-04-12T01:55:47.990Z,3.23
2023-04-12T01:58:22.104Z,3.22
2023-04-12T02:00:48.793Z,3.21
2023-04-12T02:03:15.351Z,3.22
2023-04-12T02:05:42.061Z,3.23
2023-04-12T02:08:08.599Z,3.24
2023-04-12T02:10:36.655Z,3.29
2023-04-12T02:13:03.729Z,3.34
2023-04-12T02:15:30.248Z,3.34
2023-04-12T02:17:58.223Z,3.35
2023-04-12T02:20:25.275Z,3.41
2023-04-12T02:22:53.919Z,3.46
2023-04-12T02:25:20.535Z,3.56
2023-04-12T02:27:47.117Z,3.56
2023-04-12T02:30:13.650Z,3.56
2023-04-12T02:32:45.937Z,3.57
2023-04-12T02:35:17.578Z,3.62
2023-04-12T02:37:46.598Z,3.68
2023-04-12T02:40:14.234Z,3.71
2023-04-12T02:42:40.748Z,3.75
2023-04-12T02:45:07.560Z,3.73
2023-04-12T02:47:33.934Z,3.70
2023-04-12T02:50:00.627Z,3.76
2023-04-12T02:52:28.807Z,3.83
2023-04-12T02:54:55.773Z,3.88
2023-04-12T02:57:23.359Z,3.94
2023-04-12T02:59:55.747Z,3.95
2023-04-12T03:02:22.537Z,4.00
2023-04-12T03:04:50.954Z,3.96
2023-04-12T03:07:19.044Z,3.94
2023-04-12T03:09:46.690Z,3.95
2023-04-12T03:12:15.064Z,4.00
2023-04-12T03:14:41.712Z,4.14
2023-04-12T03:17:08.289Z,4.17
2023-04-12T03:19:36.778Z,4.24
2023-04-12T03:22:04.391Z,4.28
2023-04-12T03:24:34.809Z,4.25
2023-04-12T03:27:02.746Z,4.28
2023-04-12T03:29:29.449Z,4.30
2023-04-12T03:31:57.928Z,4.33
2023-04-12T03:34:25.040Z,4.34
2023-04-12T03:36:51.507Z,4.43
2023-04-12T03:39:17.883Z,4.47
2023-04-12T03:41:44.621Z,4.49
2023-04-12T03:44:11.026Z,4.50
2023-04-12T03:46:37.451Z,4.42
2023-04-12T03:49:03.839Z,4.50
2023-04-12T03:51:30.679Z,4.54
2023-04-12T03:53:57.470Z,4.49
2023-04-12T03:56:24.018Z,4.54
2023-04-12T03:58:50.445Z,4.63
2023-04-12T04:01:17.949Z,4.67
2023-04-12T04:03:45.956Z,4.68
2023-04-12T04:06:12.868Z,4.72
2023-04-12T04:08:39.236Z,4.78
2023-04-12T04:11:08.411Z,4.80
2023-04-12T04:13:35.320Z,4.87
2023-04-12T04:16:05.940Z,4.89
2023-04-12T04:18:32.752Z,4.88
2023-04-12T04:20:59.445Z,4.94
2023-04-12T04:23:25.811Z,4.98
2023-04-12T04:25:53.945Z,4.97
2023-04-12T04:28:20.382Z,5.01
2023-04-12T04:30:46.724Z,5.06
2023-04-12T04:33:13.448Z,5.09
2023-04-12T04:35:40.639Z,5.12
2023-04-12T04:38:07.278Z,5.19
2023-04-12T04:40:33.727Z,5.24
2023-04-12T04:43:00.054Z,5.27
2023-04-12T04:45:26.636Z,5.26
2023-04-12T04:47:53.863Z,5.31
2023-04-12T04:50:23.975Z,5.37
2023-04-12T04:52:54.084Z,5.39
2023-04-12T04:55:24.838Z,5.43
2023-04-12T04:57:51.243Z,5.40
2023-04-12T05:00:18.420Z,5.37
2023-04-12T05:02:45.606Z,5.37
2023-04-12T05:05:13.597Z,5.39
2023-04-12T05:07:40.787Z,5.44
2023-04-12T05:10:07.836Z,5.47
2023-04-12T05:12:34.202Z,5.49
2023-04-12T05:17:30.568Z,5.48
2023-04-12T05:19:56.932Z,5.48
2023-04-12T05:22:23.700Z,5.51
2023-04-12T05:24:50.140Z,5.49
2023-04-12T05:27:16.601Z,5.47
2023-04-12T05:29:43.621Z,5.45
2023-04-12T05:32:10.150Z,5.50
2023-04-12T05:34:37.142Z,5.50
2023-04-12T05:37:04.118Z,5.50
2023-04-12T05:39:31.439Z,5.54
2023-04-12T05:41:57.781Z,5.56
2023-04-12T05:44:24.399Z,5.61
2023-04-12T05:46:50.888Z,5.66
2023-04-12T05:49:17.267Z,5.72
2023-04-12T05:51:43.622Z,5.78
2023-04-12T05:54:10.605Z,5.86
2023-04-12T05:56:37.618Z,5.91
2023-04-12T05:59:05.298Z,6.02
2023-04-12T06:01:34.832Z,6.16
2023-04-12T06:04:06.110Z,6.26
2023-04-12T06:06:32.795Z,6.43
2023-04-12T06:09:00.630Z,6.54
2023-04-12T06:11:27.246Z,6.68
2023-04-12T06:13:53.811Z,6.87
2023-04-12T06:16:20.290Z,6.97
2023-04-12T06:18:46.728Z,7.06
2023-04-12T06:21:13.403Z,7.13
2023-04-12T06:23:39.771Z,7.19
2023-04-12T06:26:06.410Z,7.25
2023-04-12T06:28:32.956Z,7.28
2023-04-12T06:30:59.388Z,7.31
2023-04-12T06:33:26.066Z,7.35
2023-04-12T06:35:52.771Z,7.39
2023-04-12T06:38:19.283Z,7.45
2023-04-12T06:40:45.775Z,7.49
2023-04-12T06:43:12.427Z,7.54
2023-04-12T06:45:38.884Z,7.59
2023-04-12T06:48:05.607Z,7.66
2023-04-12T06:50:32.204Z,7.69
2023-04-12T06:52:58.542Z,7.74
2023-04-12T06:55:27.077Z,7.78
2023-04-12T06:57:53.634Z,7.85
2023-04-12T07:00:20.203Z,7.92
2023-04-12T07:02:46.748Z,8.00
2023-04-12T07:05:13.822Z,8.04
2023-04-12T07:07:40.194Z,8.12
2023-04-12T07:10:07.304Z,8.17
2023-04-12T07:12:33.930Z,8.22
2023-04-12T07:15:00.348Z,8.28
2023-04-12T07:17:29.795Z,8.34
2023-04-12T07:19:56.284Z,8.42
2023-04-12T07:22:22.853Z,8.46
2023-04-12T07:24:50.533Z,8.49
2023-04-12T07:27:17.109Z,8.52
2023-04-12T07:29:43.500Z,8.59
2023-04-12T07:32:10.728Z,8.66
2023-04-12T07:34:37.777Z,8.72
2023-04-12T07:37:04.209Z,8.73
2023-04-12T07:39:31.657Z,8.78
2023-04-12T07:41:58.126Z,8.80
2023-04-12T07:44:24.762Z,8.75
2023-04-12T07:46:51.155Z,8.75
2023-04-12T07:49:17.685Z,8.73
2023-04-12T07:51:44.076Z,8.76
2023-04-12T07:54:10.444Z,8.81
2023-04-12T07:56:36.812Z,8.88
2023-04-12T07:59:03.232Z,8.98
2023-04-12T08:01:30.274Z,9.03
2023-04-12T08:03:57.194Z,9.12
2023-04-12T08:06:23.970Z,9.21
2023-04-12T08:08:50.583Z,9.34
2023-04-12T08:11:17.158Z,9.46
2023-04-12T08:13:43.514Z,9.58
2023-04-12T08:16:09.876Z,9.76
2023-04-12T08:18:36.350Z,9.87
2023-04-12T08:21:02.745Z,9.97
2023-04-12T08:23:29.096Z,10.00
2023-04-12T08:26:02.987Z,10.04
2023-04-12T08:28:30.989Z,10.15
2023-04-12T08:30:57.914Z,10.28
2023-04-12T08:33:24.379Z,10.32
2023-04-12T08:35:52.528Z,10.37
2023-04-12T08:38:20.800Z,10.37
2023-04-12T08:40:50.428Z,10.47
2023-04-12T08:43:17.465Z,10.52
2023-04-12T08:45:43.942Z,10.58
2023-04-12T08:48:10.876Z,10.61
2023-04-12T08:50:37.239Z,10.60
2023-04-12T08:53:03.709Z,10.57
2023-04-12T08:55:30.184Z,10.56
2023-04-12T08:57:56.814Z,10.61
2023-04-12T09:00:23.420Z,10.73
2023-04-12T09:02:50.665Z,10.86
2023-04-12T09:05:17.506Z,10.89
2023-04-12T09:07:43.928Z,11.02
2023-04-12T09:10:10.499Z,11.14
2023-04-12T09:12:45.637Z,11.27
2023-04-12T09:15:13.828Z,11.46
2023-04-12T09:17:41.270Z,11.56
2023-04-12T09:20:17.497Z,11.62
2023-04-12T09:22:45.214Z,11.60
2023-04-12T09:25:12.329Z,11.64
2023-04-12T09:27:48.477Z,11.64
2023-04-12T09:30:15.816Z,11.66
2023-04-12T09:32:42.335Z,11.66
2023-04-12T09:35:09.110Z,11.64
2023-04-12T09:37:35.527Z,11.52
2023-04-12T09:40:08.970Z,11.32
2023-04-12T09:42:52.255Z,11.21
2023-04-12T09:45:26.334Z,10.98
2023-04-12T09:47:53.316Z,10.90
2023-04-12T09:50:21.992Z,10.76
2023-04-12T09:52:48.448Z,10.60
2023-04-12T09:55:15.342Z,10.54
2023-04-12T09:57:42.962Z,10.44
2023-04-12T10:00:17.675Z,10.32
2023-04-12T10:02:46.907Z,10.31
2023-04-12T10:05:18.205Z,10.15
2023-04-12T10:07:45.288Z,10.09
2023-04-12T10:10:12.616Z,10.05
2023-04-12T10:12:39.999Z,9.98
2023-04-12T10:15:12.408Z,9.90
2023-04-12T10:17:52.074Z,9.84
2023-04-12T10:20:19.668Z,9.82
2023-04-12T10:22:50.153Z,9.74
2023-04-12T10:25:17.697Z,9.65
2023-04-12T10:27:44.830Z,9.66
2023-04-12T10:30:31.105Z,9.63
2023-04-12T10:33:03.667Z,9.61
2023-04-12T10:35:30.822Z,9.56
2023-04-12T10:38:01.180Z,9.54
2023-04-12T10:40:29.020Z,9.55
2023-04-12T10:43:23.914Z,9.50
2023-04-12T10:45:50.375Z,9.43
2023-04-12T10:48:29.839Z,9.32
2023-04-12T10:51:33.190Z,9.29
2023-04-12T10:54:08.375Z,9.25
2023-04-12T10:56:40.622Z,9.22
2023-04-12T10:59:16.578Z,9.24
2023-04-12T11:02:09.688Z,9.19
2023-04-12T11:04:37.260Z,9.19
2023-04-12T11:07:11.532Z,9.17
2023-04-12T11:09:44.336Z,9.21
2023-04-12T11:12:13.205Z,9.14
2023-04-12T11:14:46.673Z,9.11
2023-04-12T11:17:13.359Z,9.10
2023-04-12T11:19:49.458Z,9.12
2023-04-12T11:22:16.796Z,9.08
2023-04-12T11:24:46.656Z,9.12
2023-04-12T11:27:13.050Z,9.18
2023-04-12T11:29:39.632Z,9.15
2023-04-12T11:32:07.274Z,9.14
2023-04-12T11:34:34.469Z,9.10
2023-04-12T11:37:03.378Z,9.07
2023-04-12T11:39:31.310Z,9.01
2023-04-12T11:41:59.291Z,8.95
2023-04-12T11:44:25.994Z,9.00
2023-04-12T11:46:52.385Z,9.01
2023-04-12T11:49:19.607Z,9.01
2023-04-12T11:51:48.966Z,9.04
2023-04-12T11:54:15.939Z,8.95
2023-04-12T11:56:42.491Z,8.95
2023-04-12T11:59:08.871Z,8.85
2023-04-12T12:01:35.595Z,8.83
2023-04-12T12:04:02.475Z,8.76
2023-04-12T12:06:29.710Z,8.75
2023-04-12T12:08:56.224Z,8.77
2023-04-12T12:11:23.376Z,8.78
2023-04-12T12:13:54.057Z,8.83
2023-04-12T12:16:30.253Z,8.86
2023-04-12T12:18:57.164Z,8.88
2023-04-12T12:21:23.593Z,8.90
2023-04-12T12:23:50.358Z,8.94
2023-04-12T12:26:24.638Z,8.97
2023-04-12T12:28:52.163Z,8.94
2023-04-12T12:31:31.085Z,8.91
2023-04-12T12:33:58.813Z,8.88
2023-04-12T12:36:32.661Z,8.77
2023-04-12T12:39:12.457Z,8.81
2023-04-12T12:41:39.453Z,8.87
2023-04-12T12:44:07.149Z,8.89
2023-04-12T12:46:44.657Z,8.94
2023-04-12T12:49:18.457Z,9.03
2023-04-12T12:51:44.944Z,9.15
2023-04-12T12:54:11.326Z,9.16
2023-04-12T12:56:37.728Z,9.21
2023-04-12T12:59:04.122Z,9.27
2023-04-12T13:01:30.508Z,9.32
2023-04-12T13:03:58.832Z,9.30
2023-04-12T13:06:28.207Z,9.34
2023-04-12T13:08:55.226Z,9.28
2023-04-12T13:11:22.040Z,9.27
2023-04-12T13:13:48.653Z,9.26
2023-04-12T13:16:15.631Z,9.29
2023-04-12T13:18:42.717Z,9.30
2023-04-12T13:21:09.324Z,9.22
2023-04-12T13:23:35.773Z,9.19
2023-04-12T13:26:02.190Z,9.20
2023-04-12T13:28:28.764Z,9.25
2023-04-12T13:30:55.378Z,9.26
2023-04-12T13:33:22.294Z,9.27
2023-04-12T13:35:49.193Z,9.37
2023-04-12T13:38:15.689Z,9.38
2023-04-12T13:40:42.077Z,9.31
2023-04-12T13:43:08.724Z,9.34
2023-04-12T13:45:35.899Z,9.34
2023-04-12T13:48:02.566Z,9.30
2023-04-12T13:50:29.265Z,9.31
2023-04-12T13:52:55.664Z,9.33
2023-04-12T13:55:22.061Z,9.35
2023-04-12T13:57:48.441Z,9.34
2023-04-12T14:00:15.501Z,9.32
2023-04-12T14:02:41.911Z,9.36
2023-04-12T14:05:08.942Z,9.35
2023-04-12T14:07:35.344Z,9.36
2023-04-12T14:10:01.729Z,9.30
2023-04-12T14:12:28.141Z,9.29
2023-04-12T14:14:54.506Z,9.25
2023-04-12T14:17:20.983Z,9.24
2023-04-12T14:19:47.438Z,9.24
2023-04-12T14:22:13.780Z,9.25
2023-04-12T14:24:40.134Z,9.25
2023-04-12T14:27:06.736Z,9.26
2023-04-12T14:29:33.076Z,9.28
2023-04-12T14:31:59.449Z,9.29
2023-04-12T14:34:26.009Z,9.28
2023-04-12T14:36:52.367Z,9.29
2023-04-12T14:39:18.724Z,9.29
2023-04-12T14:41:45.214Z,9.31
2023-04-12T14:44:11.638Z,9.36
2023-04-12T14:46:38.078Z,9.40
2023-04-12T14:49:04.543Z,9.45
2023-04-12T14:51:32.136Z,9.49
2023-04-12T14:53:58.750Z,9.54
2023-04-12T14:56:28.384Z,9.57
2023-04-12T14:58:56.038Z,9.49
2023-04-12T15:01:23.428Z,9.57
2023-04-12T15:03:51.593Z,9.64
2023-04-12T15:06:19.231Z,9.67
2023-04-12T15:08:45.721Z,9.62
2023-04-12T15:11:12.538Z,9.67
2023-04-12T15:13:44.247Z,9.65
2023-04-12T15:16:12.259Z,9.67
2023-04-12T15:18:39.244Z,9.65
2023-04-12T15:21:09.313Z,9.66
2023-04-12T15:23:35.980Z,9.65
2023-04-12T15:26:03.144Z,9.65
2023-04-12T15:28:29.521Z,9.68
2023-04-12T15:30:56.142Z,9.67
2023-04-12T15:33:22.589Z,9.65
2023-04-12T15:35:49.144Z,9.65
2023-04-12T15:38:20.928Z,9.61
2023-04-12T15:40:54.100Z,9.58
2023-04-12T15:43:20.573Z,9.59
2023-04-12T15:45:47.954Z,9.59
2023-04-12T15:48:14.418Z,9.61
2023-04-12T15:50:41.659Z,9.62
2023-04-12T15:53:08.268Z,9.61
2023-04-12T15:55:34.928Z,9.61
2023-04-12T15:58:01.472Z,9.65
2023-04-12T16:00:28.641Z,9.71
2023-04-12T16:02:57.068Z,9.76
2023-04-12T16:05:24.594Z,9.84
2023-04-12T16:07:51.502Z,9.93
2023-04-12T16:10:20.959Z,10.03
2023-04-12T16:12:49.436Z,10.17
2023-04-12T16:15:19.397Z,10.23
2023-04-12T16:17:49.289Z,10.33
2023-04-12T16:20:17.075Z,10.49
2023-04-12T16:22:44.801Z,10.48
2023-04-12T16:25:12.161Z,10.47
2023-04-12T16:27:38.615Z,10.55
2023-04-12T16:30:05.656Z,10.59
2023-04-12T16:32:32.206Z,10.66
2023-04-12T16:34:59.025Z,10.62
2023-04-12T16:37:27.779Z,10.56
2023-04-12T16:39:54.720Z,10.57
2023-04-12T16:42:22.168Z,10.88
2023-04-12T16:44:48.704Z,10.74
2023-04-12T16:47:15.403Z,10.60
2023-04-12T16:49:42.411Z,10.50
2023-04-12T16:52:09.761Z,10.37
2023-04-12T16:54:36.209Z,10.33
2023-04-12T16:57:02.575Z,10.29
2023-04-12T16:59:32.095Z,10.25
2023-04-12T17:02:00.698Z,10.26
2023-04-12T17:04:27.665Z,10.21
2023-04-12T17:06:54.151Z,10.20
2023-04-12T17:09:20.638Z,10.12
2023-04-12T17:11:46.988Z,10.12
2023-04-12T17:14:13.709Z,10.07
2023-04-12T17:16:40.825Z,10.00
2023-04-12T17:19:10.030Z,9.96
2023-04-12T17:21:43.373Z,9.90
2023-04-12T17:24:10.672Z,9.87
2023-04-12T17:26:37.304Z,9.85
2023-04-12T17:29:04.102Z,9.81
2023-04-12T17:34:05.572Z,9.79
2023-04-12T17:36:31.928Z,9.78
2023-04-12T17:38:59.484Z,9.74
2023-04-12T17:41:26.825Z,9.73
2023-04-12T17:43:53.548Z,9.69
2023-04-12T17:46:19.946Z,9.66
2023-04-12T17:48:46.453Z,9.65
2023-04-12T17:51:12.862Z,9.64
2023-04-12T17:53:39.229Z,9.62
2023-04-12T17:56:06.053Z,9.57
2023-04-12T17:58:33.655Z,9.52
2023-04-12T18:01:00.220Z,9.47
2023-04-12T18:03:27.515Z,9.44
2023-04-12T18:05:55.488Z,9.40
2023-04-12T18:08:24.900Z,9.38
2023-04-12T18:10:52.440Z,9.37
2023-04-12T18:13:18.925Z,9.34
2023-04-12T18:15:45.313Z,9.31
2023-04-12T18:18:12.111Z,9.28
2023-04-12T18:20:38.580Z,9.30
2023-04-12T18:23:05.016Z,9.54
2023-04-12T18:25:31.647Z,10.04
2023-04-12T18:27:58.214Z,10.38
2023-04-12T18:30:24.574Z,9.58
2023-04-12T18:32:51.043Z,9.44
2023-04-12T18:35:17.802Z,9.37
2023-04-12T18:37:44.512Z,9.33
2023-04-12T18:40:12.086Z,9.34
2023-04-12T18:42:38.475Z,9.33
2023-04-12T18:45:05.313Z,9.32
2023-04-12T18:47:31.772Z,9.32
2023-04-12T18:49:58.152Z,9.33
2023-04-12T18:52:24.581Z,9.36
2023-04-12T18:54:51.169Z,9.35
2023-04-12T18:57:17.571Z,9.36
2023-04-12T18:59:47.630Z,9.35
2023-04-12T19:02:15.069Z,9.35
2023-04-12T19:04:42.191Z,9.38
2023-04-12T19:07:08.584Z,9.35
2023-04-12T19:09:35.108Z,-141.21
2023-04-12T19:12:02.867Z,-141.21
2023-04-12T19:14:30.519Z,-141.21
2023-04-12T19:16:57.495Z,-141.21
2023-04-12T19:19:23.867Z,-141.21
2023-04-12T19:21:50.210Z,-141.21
2023-04-12T19:24:16.713Z,-141.21
2023-04-12T19:26:46.930Z,-141.21
2023-04-12T19:29:15.101Z,-141.21
2023-04-12T19:31:43.222Z,-141.21
2023-04-12T19:34:09.688Z,-141.21
2023-04-12T19:36:36.653Z,-141.21
2023-04-12T19:39:03.387Z,-141.21
2023-04-12T19:41:29.739Z,-141.21
2023-04-12T19:43:56.696Z,-141.21
2023-04-12T19:46:23.357Z,-141.21
2023-04-12T19:48:49.863Z,-141.21
2023-04-12T19:51:16.245Z,-141.21
2023-04-12T19:53:42.832Z,-141.21
2023-04-12T19:56:09.726Z,-141.21
2023-04-12T19:58:36.091Z,-141.21
2023-04-12T20:01:03.114Z,-141.21
2023-04-12T20:03:29.901Z,-141.21
2023-04-12T20:05:58.840Z,-141.21
2023-04-12T20:08:25.690Z,-141.21
2023-04-12T20:10:52.026Z,-141.21
2023-04-12T20:13:18.446Z,-141.21
2023-04-12T20:15:44.954Z,-141.21
2023-04-12T20:18:12.988Z,-141.21
2023-04-12T20:20:39.362Z,-141.21
2023-04-12T20:23:06.124Z,-141.21
2023-04-12T20:25:38.068Z,-141.21
2023-04-12T20:28:04.539Z,-141.21
2023-04-12T20:30:31.043Z,-141.21
2023-04-12T20:32:58.535Z,-141.21
2023-04-12T20:35:25.638Z,-141.21
2023-04-12T20:37:52.891Z,-141.21
2023-04-12T20:40:19.614Z,-141.21
2023-04-12T20:42:46.143Z,-141.21
2023-04-12T20:45:13.248Z,-141.21
2023-04-12T20:47:39.710Z,-141.21
2023-04-12T20:50:07.445Z,-141.21
2023-04-12T20:52:34.972Z,-141.21
2023-04-12T20:55:01.357Z,-141.21
2023-04-12T20:57:27.715Z,-141.21
2023-04-12T20:59:55.291Z,-141.21
2023-04-12T21:02:22.108Z,-141.21
2023-04-12T21:04:48.925Z,-141.21
2023-04-12T21:07:15.900Z,-141.21
2023-04-12T21:09:42.294Z,-141.21
2023-04-12T21:12:09.678Z,-141.21
2023-04-12T21:14:37.597Z,-141.21
2023-04-12T21:17:07.860Z,-141.21
2023-04-12T21:19:39.088Z,-141.21
2023-04-12T21:22:06.904Z,-141.21
2023-04-12T21:24:38.085Z,-141.21
2023-04-12T21:27:06.748Z,-141.21
2023-04-12T21:29:36.559Z,-141.21
2023-04-12T21:32:05.699Z,-141.21
2023-04-12T21:34:33.001Z,-141.21
2023-04-12T21:37:01.138Z,-141.21
2023-04-12T21:39:28.306Z,-141.21
2023-04-12T21:41:55.906Z,-141.21
2023-04-12T21:44:22.300Z,-141.21
2023-04-12T21:46:48.671Z,-141.21
2023-04-12T21:49:15.832Z,-141.21
2023-04-12T21:51:42.239Z,-141.21
2023-04-12T21:54:12.514Z,-141.21
2023-04-12T21:56:39.070Z,-141.21
2023-04-12T21:59:06.979Z,-141.21
2023-04-12T22:01:33.584Z,-141.21
2023-04-12T22:04:00.976Z,-141.21
2023-04-12T22:06:27.474Z,-141.21
2023-04-12T22:08:53.833Z,-141.21
2023-04-12T22:11:20.869Z,-141.21
2023-04-12T22:13:47.325Z,-141.21
2023-04-12T22:16:13.987Z,-141.21
2023-04-12T22:18:41.131Z,-141.21
2023-04-12T22:21:08.124Z,-141.21
2023-04-12T22:23:38.713Z,-141.21
2023-04-12T22:26:09.399Z,-141.21
2023-04-12T22:28:37.770Z,-141.21
2023-04-12T22:31:10.700Z,-141.21
2023-04-12T22:33:37.987Z,-141.21
2023-04-12T22:36:05.937Z,-141.21
2023-04-12T22:38:35.687Z,-141.21
2023-04-12T22:41:06.401Z,-141.21
2023-04-12T22:43:37.926Z,-141.21
2023-04-12T22:46:05.690Z,-141.21
2023-04-12T22:48:32.319Z,-141.21
2023-04-12T22:51:02.513Z,-141.21
2023-04-12T22:53:28.857Z,-141.21
2023-04-12T22:55:55.941Z,-141.21
2023-04-12T22:58:22.823Z,-141.21
2023-04-12T23:00:50.664Z,-141.21
2023-04-12T23:03:18.069Z,-141.21
2023-04-12T23:05:45.934Z,-141.21
2023-04-12T23:08:15.652Z,-141.21
2023-04-12T23:10:42.525Z,-141.21
2023-04-12T23:13:09.576Z,-141.21
2023-04-12T23:15:36.084Z,-141.21
2023-04-12T23:18:05.524Z,-141.21
2023-04-12T23:20:32.959Z,-141.21
2023-04-12T23:22:59.371Z,-141.21
2023-04-12T23:25:38.795Z,-141.21
2023-04-12T23:28:09.602Z,-141.21
2023-04-12T23:30:36.141Z,-141.21
2023-04-12T23:33:02.658Z,-141.21
2023-04-12T23:35:29.322Z,-141.21
2023-04-12T23:37:56.117Z,-141.21
2023-04-12T23:40:23.715Z,-141.21
2023-04-12T23:42:50.835Z,-141.21
2023-04-12T23:45:17.326Z,-141.21
2023-04-12T23:47:43.732Z,-141.21
2023-04-12T23:50:10.487Z,-141.21
2023-04-12T23:52:37.114Z,-141.21
2023-04-12T23:55:04.029Z,-141.21
2023-04-12T23:57:30.446Z,-141.21
2023-04-12T23:59:56.791Z,-141.21
